createdAt,value
2019-04-11T00:00:31.262Z,51.00
2019-04-11T00:01:16.583Z,51.10
2019-04-11T00:01:53.441Z,51.00
2019-04-11T00:02:30.911Z,51.10
2019-04-11T00:03:06.662Z,51.20
2019-04-11T00:03:42.218Z,51.30
2019-04-11T00:04:18.000Z,51.40
2019-04-11T00:04:54.666Z,51.40
2019-04-11T00:05:30.727Z,51.40
2019-04-11T00:06:07.442Z,51.60
2019-04-11T00:06:43.499Z,51.60
2019-04-11T00:07:20.330Z,51.60
2019-04-11T00:07:58.073Z,51.70
2019-04-11T00:08:34.187Z,51.80
2019-04-11T00:09:14.475Z,51.80
2019-04-11T00:09:51.123Z,51.70
2019-04-11T00:10:29.242Z,52.50
2019-04-11T00:11:06.780Z,51.80
2019-04-11T00:11:42.412Z,51.80
2019-04-11T00:12:18.741Z,51.90
2019-04-11T00:12:54.814Z,52.00
2019-04-11T00:13:33.327Z,52.00
2019-04-11T00:14:07.713Z,52.10
2019-04-11T00:14:44.174Z,52.20
2019-04-11T00:15:20.616Z,52.10
2019-04-11T00:15:57.171Z,52.20
2019-04-11T00:16:33.186Z,52.20
2019-04-11T00:17:09.726Z,52.20
2019-04-11T00:17:45.990Z,52.00
2019-04-11T00:18:22.780Z,52.50
2019-04-11T00:18:58.888Z,52.50
2019-04-11T00:19:35.821Z,52.60
2019-04-11T00:20:11.835Z,52.60
2019-04-11T00:20:48.491Z,52.70
2019-04-11T00:21:24.680Z,52.70
2019-04-11T00:22:01.403Z,52.80
2019-04-11T00:22:37.450Z,52.80
2019-04-11T00:23:14.140Z,52.80
2019-04-11T00:23:50.273Z,53.00
2019-04-11T00:24:27.191Z,52.90
2019-04-11T00:25:03.195Z,52.90
2019-04-11T00:25:39.709Z,53.00
2019-04-11T00:26:15.988Z,53.00
2019-04-11T00:26:52.698Z,53.10
2019-04-11T00:27:28.849Z,53.10
2019-04-11T00:28:05.796Z,53.00
2019-04-11T00:28:41.759Z,53.00
2019-04-11T00:29:18.403Z,53.00
2019-04-11T00:29:54.021Z,53.10
2019-04-11T00:30:30.332Z,53.10
2019-04-11T00:31:06.382Z,53.20
2019-04-11T00:31:43.100Z,53.30
2019-04-11T00:32:19.199Z,53.30
2019-04-11T00:32:55.958Z,53.40
2019-04-11T00:33:32.119Z,53.50
2019-04-11T00:34:08.823Z,53.50
2019-04-11T00:34:46.921Z,53.50
2019-04-11T00:35:23.735Z,53.60
2019-04-11T00:36:00.507Z,53.60
2019-04-11T00:36:36.740Z,53.70
2019-04-11T00:37:12.751Z,53.80
2019-04-11T00:37:49.486Z,53.80
2019-04-11T00:38:25.682Z,53.80
2019-04-11T00:39:01.441Z,53.90
2019-04-11T00:39:39.626Z,53.90
2019-04-11T00:40:15.337Z,53.80
2019-04-11T00:40:51.257Z,53.90
2019-04-11T00:41:28.001Z,53.80
2019-04-11T00:42:04.111Z,53.80
2019-04-11T00:42:40.850Z,53.90
2019-04-11T00:43:29.706Z,53.90
2019-04-11T00:43:54.930Z,54.10
2019-04-11T00:44:30.652Z,54.10
2019-04-11T00:45:07.602Z,54.20
2019-04-11T00:45:43.568Z,54.30
2019-04-11T00:46:20.307Z,54.30
2019-04-11T00:46:56.363Z,54.40
2019-04-11T00:47:33.099Z,54.30
2019-04-11T00:48:09.239Z,54.50
2019-04-11T00:48:45.991Z,54.50
2019-04-11T00:49:22.086Z,54.60
2019-04-11T00:49:58.801Z,54.80
2019-04-11T00:50:35.018Z,54.80
2019-04-11T00:51:11.830Z,54.80
2019-04-11T00:51:49.825Z,54.80
2019-04-11T00:52:25.544Z,54.80
2019-04-11T00:53:01.545Z,54.80
2019-04-11T00:53:38.243Z,54.80
2019-04-11T00:54:16.442Z,54.80
2019-04-11T00:54:53.136Z,54.90
2019-04-11T00:55:29.335Z,55.00
2019-04-11T00:56:06.254Z,55.10
2019-04-11T00:56:42.302Z,55.10
2019-04-11T00:57:18.966Z,55.30
2019-04-11T00:57:55.053Z,55.20
2019-04-11T00:58:32.031Z,55.30
2019-04-11T00:59:07.956Z,55.40
2019-04-11T00:59:44.662Z,55.50
2019-04-11T01:00:20.906Z,55.50
2019-04-11T01:00:57.565Z,55.50
2019-04-11T01:01:33.676Z,55.70
2019-04-11T01:02:09.457Z,55.80
2019-04-11T01:02:45.509Z,55.80
2019-04-11T01:03:22.078Z,55.80
2019-04-11T01:03:59.107Z,55.90
2019-04-11T01:04:35.249Z,55.90
2019-04-11T01:05:11.321Z,55.90
2019-04-11T01:05:47.857Z,56.60
2019-04-11T01:06:24.507Z,56.00
2019-04-11T01:07:00.688Z,56.10
2019-04-11T01:07:36.792Z,56.20
2019-04-11T01:08:13.575Z,56.00
2019-04-11T01:08:49.272Z,56.00
2019-04-11T01:09:26.315Z,56.10
2019-04-11T01:10:02.031Z,56.10
2019-04-11T01:10:39.397Z,56.20
2019-04-11T01:11:16.114Z,56.20
2019-04-11T01:11:52.166Z,56.30
2019-04-11T01:12:28.929Z,57.10
2019-04-11T01:13:07.083Z,56.40
2019-04-11T01:13:49.968Z,56.50
2019-04-11T01:14:20.103Z,56.40
2019-04-11T01:14:57.437Z,56.50
2019-04-11T01:15:33.126Z,56.50
2019-04-11T01:16:28.414Z,56.60
2019-04-11T01:17:06.138Z,56.60
2019-04-11T01:17:41.665Z,56.70
2019-04-11T01:18:18.032Z,56.70
2019-04-11T01:18:54.504Z,56.80
2019-04-11T01:19:30.951Z,56.90
2019-04-11T01:20:06.991Z,57.00
2019-04-11T01:20:43.863Z,57.00
2019-04-11T01:21:20.007Z,56.50
2019-04-11T01:21:55.750Z,57.00
2019-04-11T01:22:32.585Z,57.10
2019-04-11T01:23:08.960Z,57.10
2019-04-11T01:23:45.131Z,57.20
2019-04-11T01:24:21.816Z,57.20
2019-04-11T01:24:57.838Z,57.20
2019-04-11T01:25:34.759Z,57.20
2019-04-11T01:26:10.786Z,57.20
2019-04-11T01:26:47.656Z,57.20
2019-04-11T01:27:24.298Z,57.20
2019-04-11T01:28:00.541Z,57.30
2019-04-11T01:28:36.517Z,57.30
2019-04-11T01:29:13.339Z,57.30
2019-04-11T01:29:49.510Z,57.30
2019-04-11T01:30:30.647Z,58.00
2019-04-11T01:31:09.465Z,57.40
2019-04-11T01:31:46.236Z,57.50
2019-04-11T01:32:22.302Z,57.50
2019-04-11T01:32:58.938Z,57.50
2019-04-11T01:33:35.819Z,57.60
2019-04-11T01:34:12.708Z,57.60
2019-04-11T01:34:49.577Z,57.70
2019-04-11T01:35:25.517Z,57.90
2019-04-11T01:36:01.165Z,57.70
2019-04-11T01:36:37.406Z,57.70
2019-04-11T01:37:13.422Z,57.70
2019-04-11T01:37:50.145Z,57.80
2019-04-11T01:38:25.900Z,57.80
2019-04-11T01:39:05.822Z,57.90
2019-04-11T01:39:51.850Z,57.80
2019-04-11T01:40:29.797Z,57.80
2019-04-11T01:41:06.609Z,57.80
2019-04-11T01:41:42.623Z,57.90
2019-04-11T01:42:19.494Z,57.90
2019-04-11T01:42:55.522Z,57.90
2019-04-11T01:43:32.376Z,57.90
2019-04-11T01:44:08.914Z,57.80
2019-04-11T01:44:47.165Z,57.90
2019-04-11T01:45:25.300Z,57.90
2019-04-11T01:46:01.958Z,58.00
2019-04-11T01:46:38.237Z,58.00
2019-04-11T01:47:18.395Z,58.20
2019-04-11T01:48:02.029Z,58.10
2019-04-11T01:48:43.946Z,58.30
2019-04-11T01:49:21.887Z,58.40
2019-04-11T01:49:58.682Z,58.40
2019-04-11T01:50:35.069Z,58.40
2019-04-11T01:51:11.561Z,58.40
2019-04-11T01:51:47.659Z,58.60
2019-04-11T01:52:24.443Z,58.60
2019-04-11T01:53:00.544Z,58.40
2019-04-11T01:53:37.356Z,58.30
2019-04-11T01:54:13.274Z,58.40
2019-04-11T01:54:50.002Z,58.30
2019-04-11T01:55:26.212Z,58.30
2019-04-11T01:56:02.880Z,58.40
2019-04-11T01:56:39.149Z,58.60
2019-04-11T01:57:15.869Z,58.70
2019-04-11T01:57:51.955Z,58.80
2019-04-11T01:58:28.805Z,58.80
2019-04-11T01:59:04.915Z,59.30
2019-04-11T01:59:41.672Z,58.80
2019-04-11T02:00:36.674Z,59.40
2019-04-11T02:01:30.543Z,58.90
2019-04-11T02:02:44.789Z,59.00
2019-04-11T02:03:33.074Z,59.00
2019-04-11T02:04:19.762Z,59.00
2019-04-11T02:05:02.843Z,59.00
2019-04-11T02:05:38.586Z,59.00
2019-04-11T02:06:14.209Z,59.10
2019-04-11T02:06:50.011Z,59.10
2019-04-11T02:07:26.825Z,59.10
2019-04-11T02:08:02.960Z,59.20
2019-04-11T02:08:39.584Z,59.20
2019-04-11T02:09:15.885Z,59.30
2019-04-11T02:09:52.558Z,59.40
2019-04-11T02:10:28.722Z,59.50
2019-04-11T02:11:05.385Z,59.50
2019-04-11T02:11:41.607Z,59.50
2019-04-11T02:12:19.550Z,59.60
2019-04-11T02:12:56.314Z,59.60
2019-04-11T02:13:32.180Z,59.60
2019-04-11T02:14:14.118Z,59.60
2019-04-11T02:14:45.921Z,59.70
2019-04-11T02:15:24.093Z,59.80
2019-04-11T02:16:00.337Z,59.90
2019-04-11T02:16:37.076Z,60.00
2019-04-11T02:17:12.749Z,60.00
2019-04-11T02:17:48.806Z,60.10
2019-04-11T02:18:25.505Z,60.20
2019-04-11T02:19:01.661Z,60.20
2019-04-11T02:19:38.520Z,60.40
2019-04-11T02:20:15.229Z,60.40
2019-04-11T02:20:51.380Z,60.50
2019-04-11T02:21:27.456Z,60.60
2019-04-11T02:22:38.267Z,60.60
2019-04-11T02:23:23.357Z,60.80
2019-04-11T02:24:17.431Z,61.00
2019-04-11T02:25:08.532Z,61.00
2019-04-11T02:25:52.535Z,61.10
2019-04-11T02:26:31.395Z,61.20
2019-04-11T02:27:21.111Z,61.20
2019-04-11T02:27:58.102Z,61.40
2019-04-11T02:28:34.928Z,61.50
2019-04-11T02:29:11.180Z,61.70
2019-04-11T02:29:46.825Z,61.70
2019-04-11T02:30:25.371Z,62.00
2019-04-11T02:31:02.563Z,62.00
2019-04-11T02:31:38.964Z,62.00
2019-04-11T02:32:15.756Z,62.00
2019-04-11T02:32:53.475Z,62.00
2019-04-11T02:33:28.677Z,61.90
2019-04-11T02:34:05.890Z,62.00
2019-04-11T02:34:41.526Z,62.00
2019-04-11T02:35:17.676Z,61.90
2019-04-11T02:35:56.458Z,62.00
2019-04-11T02:36:33.734Z,61.90
2019-04-11T02:37:09.406Z,61.90
2019-04-11T02:37:47.588Z,62.40
2019-04-11T02:38:24.370Z,62.00
2019-04-11T02:39:04.039Z,62.20
2019-04-11T02:39:40.797Z,62.20
2019-04-11T02:40:17.676Z,62.30
2019-04-11T02:40:55.059Z,63.10
2019-04-11T02:41:32.009Z,62.40
2019-04-11T02:42:10.836Z,62.50
2019-04-11T02:42:47.550Z,62.50
2019-04-11T02:43:25.226Z,62.50
2019-04-11T02:44:01.488Z,62.60
2019-04-11T02:44:56.041Z,62.70
2019-04-11T02:45:27.361Z,62.80
2019-04-11T02:46:09.073Z,62.60
2019-04-11T02:46:38.510Z,62.60
2019-04-11T02:47:13.576Z,62.60
2019-04-11T02:47:48.147Z,62.60
2019-04-11T02:48:22.638Z,62.70
2019-04-11T02:48:59.370Z,62.60
2019-04-11T02:49:35.828Z,62.70
2019-04-11T02:50:14.891Z,62.80
2019-04-11T02:50:50.364Z,62.80
2019-04-11T02:51:26.985Z,62.90
2019-04-11T02:52:07.181Z,62.80
2019-04-11T02:52:44.429Z,62.80
2019-04-11T02:53:21.274Z,62.80
2019-04-11T02:53:59.064Z,62.90
2019-04-11T02:54:36.513Z,63.10
2019-04-11T02:55:13.111Z,63.10
2019-04-11T02:55:49.775Z,63.00
2019-04-11T02:56:25.861Z,62.90
2019-04-11T02:57:03.222Z,63.80
2019-04-11T02:57:40.660Z,63.10
2019-04-11T02:58:16.514Z,63.10
2019-04-11T02:58:52.336Z,63.20
2019-04-11T02:59:29.672Z,63.30
2019-04-11T03:00:08.626Z,63.30
2019-04-11T03:00:45.482Z,63.40
2019-04-11T03:01:21.993Z,63.30
2019-04-11T03:01:58.195Z,63.30
2019-04-11T03:02:34.742Z,63.30
2019-04-11T03:03:10.464Z,63.30
2019-04-11T03:03:47.457Z,63.30
2019-04-11T03:04:24.396Z,63.40
2019-04-11T03:05:00.467Z,63.40
2019-04-11T03:05:37.513Z,63.40
2019-04-11T03:06:15.233Z,63.50
2019-04-11T03:06:51.995Z,63.60
2019-04-11T03:07:27.881Z,63.60
2019-04-11T03:08:08.684Z,63.70
2019-04-11T03:08:41.536Z,63.70
2019-04-11T03:09:19.603Z,63.80
2019-04-11T03:09:56.455Z,64.00
2019-04-11T03:10:33.685Z,63.90
2019-04-11T03:11:10.750Z,64.00
2019-04-11T03:11:47.217Z,64.10
2019-04-11T03:12:24.178Z,64.20
2019-04-11T03:13:00.866Z,64.20
2019-04-11T03:13:38.125Z,64.30
2019-04-11T03:14:16.369Z,64.50
2019-04-11T03:15:10.983Z,64.30
2019-04-11T03:15:43.184Z,64.40
2019-04-11T03:16:23.750Z,64.40
2019-04-11T03:16:56.731Z,64.40
2019-04-11T03:17:26.801Z,64.50
2019-04-11T03:18:01.998Z,64.60
2019-04-11T03:18:53.123Z,64.60
2019-04-11T03:19:28.539Z,64.70
2019-04-11T03:20:04.579Z,64.80
2019-04-11T03:20:34.456Z,64.90
2019-04-11T03:21:11.141Z,65.00
2019-04-11T03:21:46.594Z,64.90
2019-04-11T03:22:22.459Z,65.00
2019-04-11T03:23:04.794Z,65.10
2019-04-11T03:23:35.866Z,65.20
2019-04-11T03:24:13.164Z,65.20
2019-04-11T03:24:49.240Z,65.20
2019-04-11T03:25:25.691Z,65.40
2019-04-11T03:26:03.032Z,65.40
2019-04-11T03:26:38.864Z,65.30
2019-04-11T03:27:15.430Z,65.40
2019-04-11T03:27:54.186Z,65.50
2019-04-11T03:28:31.290Z,65.70
2019-04-11T03:29:08.733Z,65.50
2019-04-11T03:29:45.240Z,65.60
2019-04-11T03:30:33.946Z,65.70
2019-04-11T03:31:26.446Z,65.70
2019-04-11T03:32:24.831Z,65.80
2019-04-11T03:32:49.419Z,65.70
2019-04-11T03:36:08.708Z,65.70
2019-04-11T03:36:56.629Z,65.70
2019-04-11T03:37:15.569Z,65.70
2019-04-11T03:37:39.185Z,65.80
2019-04-11T03:38:15.232Z,65.80
2019-04-11T03:38:46.511Z,65.80
2019-04-11T03:39:22.044Z,66.00
2019-04-11T03:40:01.900Z,65.90
2019-04-11T03:40:38.630Z,66.00
2019-04-11T03:41:10.312Z,66.10
2019-04-11T03:41:52.345Z,66.20
2019-04-11T03:42:29.589Z,66.30
2019-04-11T03:43:04.308Z,66.40
2019-04-11T03:43:36.577Z,66.50
2019-04-11T03:44:12.145Z,66.60
2019-04-11T03:44:47.207Z,66.60
2019-04-11T03:45:38.137Z,66.70
2019-04-11T03:46:16.087Z,66.60
2019-04-11T03:46:48.287Z,66.70
2019-04-11T03:47:23.691Z,66.80
2019-04-11T03:48:02.400Z,66.80
2019-04-11T03:48:36.852Z,67.10
2019-04-11T03:49:12.782Z,66.80
2019-04-11T03:49:46.672Z,66.80
2019-04-11T03:50:19.615Z,66.90
2019-04-11T03:50:56.641Z,66.90
2019-04-11T03:51:30.695Z,67.00
2019-04-11T03:52:08.200Z,67.00
2019-04-11T03:52:45.028Z,67.10
2019-04-11T03:53:23.419Z,67.20
2019-04-11T03:53:59.109Z,67.10
2019-04-11T03:54:36.752Z,67.20
2019-04-11T03:55:13.189Z,67.30
2019-04-11T03:55:51.546Z,67.20
2019-04-11T03:56:28.610Z,67.30
2019-04-11T03:57:05.545Z,67.30
2019-04-11T03:57:41.789Z,67.30
2019-04-11T03:58:19.735Z,67.40
2019-04-11T03:58:55.482Z,67.30
2019-04-11T03:59:31.901Z,67.30
2019-04-11T04:00:10.138Z,67.40
2019-04-11T04:00:46.735Z,67.40
2019-04-11T04:01:25.167Z,67.40
2019-04-11T04:02:01.212Z,67.20
2019-04-11T04:02:37.736Z,67.20
2019-04-11T04:03:14.366Z,67.20
2019-04-11T04:03:51.878Z,67.60
2019-04-11T04:04:28.908Z,67.20
2019-04-11T04:05:06.673Z,67.30
2019-04-11T04:05:44.425Z,67.30
2019-04-11T04:06:20.953Z,67.30
2019-04-11T04:06:57.854Z,67.20
2019-04-11T04:07:34.058Z,67.10
2019-04-11T04:08:10.884Z,67.20
2019-04-11T04:08:48.582Z,67.20
2019-04-11T04:09:26.171Z,67.30
2019-04-11T04:10:03.057Z,67.30
2019-04-11T04:11:00.603Z,67.40
2019-04-11T04:11:36.507Z,67.30
2019-04-11T04:12:13.616Z,67.30
2019-04-11T04:12:51.476Z,67.30
2019-04-11T04:13:30.158Z,67.50
2019-04-11T04:14:28.473Z,67.40
2019-04-11T04:15:53.777Z,67.50
2019-04-11T04:16:40.140Z,67.50
2019-04-11T04:17:17.078Z,67.50
2019-04-11T04:18:27.705Z,67.80
2019-04-11T04:19:14.761Z,67.80
2019-04-11T04:19:57.076Z,67.90
2019-04-11T04:20:54.416Z,67.80
2019-04-11T04:21:44.810Z,67.70
2019-04-11T04:22:27.081Z,67.80
2019-04-11T04:23:29.440Z,67.90
2019-04-11T04:24:19.140Z,67.90
2019-04-11T04:24:56.383Z,68.00
2019-04-11T04:25:32.494Z,67.90
2019-04-11T04:26:11.562Z,67.90
2019-04-11T04:26:45.424Z,67.90
2019-04-11T04:27:23.264Z,68.00
2019-04-11T04:27:58.961Z,67.90
2019-04-11T04:28:35.744Z,68.00
2019-04-11T04:29:12.187Z,68.10
2019-04-11T04:29:52.821Z,68.20
2019-04-11T04:30:27.731Z,68.20
2019-04-11T04:31:04.615Z,68.30
2019-04-11T04:31:40.656Z,68.30
2019-04-11T04:32:18.691Z,68.30
2019-04-11T04:32:56.785Z,68.40
2019-04-11T04:33:35.436Z,68.40
2019-04-11T04:34:11.438Z,68.40
2019-04-11T04:34:49.035Z,68.40
2019-04-11T04:35:26.170Z,68.40
2019-04-11T04:36:02.368Z,68.40
2019-04-11T04:36:40.323Z,68.40
2019-04-11T04:37:17.921Z,68.40
2019-04-11T04:37:56.791Z,68.40
2019-04-11T04:38:33.788Z,68.40
2019-04-11T04:39:10.631Z,68.40
2019-04-11T04:39:47.989Z,68.50
2019-04-11T04:40:40.970Z,68.40
2019-04-11T04:41:16.760Z,68.50
2019-04-11T04:41:47.069Z,68.60
2019-04-11T04:42:26.327Z,68.60
2019-04-11T04:42:58.209Z,68.80
2019-04-11T04:43:34.030Z,68.80
2019-04-11T04:44:10.133Z,68.70
2019-04-11T04:44:46.775Z,68.80
2019-04-11T04:45:23.884Z,68.80
2019-04-11T04:46:20.375Z,68.80
2019-04-11T04:46:52.830Z,68.80
2019-04-11T04:47:22.193Z,68.90
2019-04-11T04:47:56.897Z,68.80
2019-04-11T04:48:30.091Z,69.00
2019-04-11T04:49:06.979Z,69.00
2019-04-11T04:49:43.673Z,69.00
2019-04-11T04:50:20.127Z,68.80
2019-04-11T04:50:57.667Z,68.80
2019-04-11T04:51:35.026Z,69.00
2019-04-11T04:52:13.988Z,69.10
2019-04-11T04:52:49.175Z,69.00
2019-04-11T04:53:27.692Z,69.00
2019-04-11T04:54:03.837Z,69.00
2019-04-11T04:54:41.063Z,69.00
2019-04-11T04:55:17.418Z,69.00
2019-04-11T04:55:54.395Z,69.00
2019-04-11T04:56:32.273Z,68.90
2019-04-11T04:57:09.256Z,68.80
2019-04-11T04:57:45.625Z,68.90
2019-04-11T04:58:22.396Z,68.80
2019-04-11T04:58:58.963Z,68.80
2019-04-11T04:59:37.435Z,68.90
2019-04-11T05:00:14.135Z,68.90
2019-04-11T05:00:51.992Z,68.90
2019-04-11T05:01:28.485Z,68.80
2019-04-11T05:02:06.112Z,68.80
2019-04-11T05:02:42.122Z,69.00
2019-04-11T05:03:26.926Z,69.00
2019-04-11T05:04:04.540Z,69.00
2019-04-11T05:04:40.334Z,69.00
2019-04-11T05:05:17.778Z,69.00
2019-04-11T05:05:55.312Z,69.00
2019-04-11T05:06:32.212Z,69.00
2019-04-11T05:07:09.628Z,68.80
2019-04-11T05:07:46.870Z,69.00
2019-04-11T05:08:25.021Z,69.00
2019-04-11T05:09:00.826Z,69.00
2019-04-11T05:09:38.351Z,69.00
2019-04-11T05:10:15.341Z,69.00
2019-04-11T05:10:53.406Z,69.00
2019-04-11T05:11:30.580Z,69.00
2019-04-11T05:12:07.494Z,69.00
2019-04-11T05:12:45.916Z,69.00
2019-04-11T05:13:23.951Z,69.10
2019-04-11T05:14:00.907Z,69.00
2019-04-11T05:14:39.296Z,69.00
2019-04-11T05:15:16.702Z,69.00
2019-04-11T05:16:07.188Z,68.80
2019-04-11T05:16:30.967Z,68.80
2019-04-11T05:17:06.726Z,68.80
2019-04-11T05:17:44.012Z,69.00
2019-04-11T05:18:20.618Z,69.00
2019-04-11T05:18:58.026Z,69.00
2019-04-11T05:19:34.249Z,68.90
2019-04-11T05:20:09.819Z,68.80
2019-04-11T05:20:46.308Z,68.60
2019-04-11T05:21:21.941Z,68.60
2019-04-11T05:21:57.769Z,68.60
2019-04-11T05:22:33.396Z,68.60
2019-04-11T05:23:09.232Z,68.60
2019-04-11T05:23:45.924Z,68.70
2019-04-11T05:24:22.814Z,68.70
2019-04-11T05:25:01.735Z,68.50
2019-04-11T05:25:36.849Z,68.60
2019-04-11T05:26:12.529Z,68.40
2019-04-11T05:26:48.225Z,68.30
2019-04-11T05:27:25.027Z,68.30
2019-04-11T05:28:00.707Z,68.30
2019-04-11T05:28:37.384Z,68.30
2019-04-11T05:29:13.194Z,68.30
2019-04-11T05:29:49.536Z,68.20
2019-04-11T05:30:33.492Z,68.20
2019-04-11T05:31:10.194Z,68.30
2019-04-11T05:31:47.025Z,68.60
2019-04-11T05:32:23.907Z,68.60
2019-04-11T05:32:59.840Z,68.50
2019-04-11T05:33:35.434Z,68.30
2019-04-11T05:34:11.850Z,68.30
2019-04-11T05:34:47.596Z,68.20
2019-04-11T05:35:23.151Z,68.10
2019-04-11T05:35:58.690Z,68.10
2019-04-11T05:36:34.494Z,68.10
2019-04-11T05:37:11.081Z,68.00
2019-04-11T05:37:47.128Z,68.00
2019-04-11T05:38:23.070Z,67.80
2019-04-11T05:38:58.696Z,67.60
2019-04-11T05:39:34.544Z,67.50
2019-04-11T05:40:10.103Z,67.50
2019-04-11T05:40:46.146Z,68.10
2019-04-11T05:41:23.093Z,68.10
2019-04-11T05:41:59.242Z,67.30
2019-04-11T05:42:35.535Z,67.20
2019-04-11T05:43:11.475Z,67.20
2019-04-11T05:43:47.578Z,67.00
2019-04-11T05:44:23.288Z,67.00
2019-04-11T05:44:59.238Z,67.90
2019-04-11T05:45:36.406Z,67.10
2019-04-11T05:46:26.261Z,67.10
2019-04-11T05:46:55.780Z,67.10
2019-04-11T05:47:27.620Z,67.20
2019-04-11T05:48:05.199Z,67.10
2019-04-11T05:49:03.844Z,67.00
2019-04-11T05:50:13.566Z,67.00
2019-04-11T05:50:52.390Z,66.70
2019-04-11T05:51:26.439Z,66.70
2019-04-11T05:52:08.096Z,66.50
2019-04-11T05:52:44.180Z,66.50
2019-04-11T05:53:21.131Z,66.30
2019-04-11T05:53:57.877Z,66.30
2019-04-11T05:54:41.850Z,66.30
2019-04-11T05:55:17.703Z,66.30
2019-04-11T05:55:53.387Z,66.20
2019-04-11T05:56:31.080Z,66.20
2019-04-11T05:57:07.063Z,66.30
2019-04-11T05:57:44.900Z,66.10
2019-04-11T05:58:20.747Z,66.10
2019-04-11T05:58:59.839Z,66.00
2019-04-11T05:59:36.109Z,66.00
2019-04-11T06:00:17.441Z,66.00
2019-04-11T06:01:09.412Z,65.90
2019-04-11T06:01:49.087Z,66.00
2019-04-11T06:02:39.878Z,65.90
2019-04-11T06:03:15.709Z,65.90
2019-04-11T06:03:52.560Z,65.70
2019-04-11T06:04:42.821Z,65.60
2019-04-11T06:05:40.764Z,65.60
2019-04-11T06:06:50.640Z,65.60
2019-04-11T06:07:42.489Z,65.60
2019-04-11T06:08:22.665Z,65.60
2019-04-11T06:08:58.518Z,65.50
2019-04-11T06:09:35.972Z,65.60
2019-04-11T06:10:14.782Z,65.60
2019-04-11T06:11:14.552Z,65.60
2019-04-11T06:11:57.517Z,65.30
2019-04-11T06:12:50.612Z,65.20
2019-04-11T06:13:42.780Z,65.10
2019-04-11T06:14:25.027Z,65.00
2019-04-11T06:15:05.947Z,65.00
2019-04-11T06:15:44.371Z,64.90
2019-04-11T06:16:20.827Z,64.90
2019-04-11T06:17:00.876Z,65.00
2019-04-11T06:17:38.498Z,64.70
2019-04-11T06:18:37.777Z,64.70
2019-04-11T06:19:31.721Z,64.60
2019-04-11T06:20:25.542Z,64.70
2019-04-11T06:21:09.829Z,64.50
2019-04-11T06:21:48.942Z,64.60
2019-04-11T06:22:25.521Z,64.50
2019-04-11T06:23:21.295Z,64.30
2019-04-11T06:24:16.227Z,64.30
2019-04-11T06:25:18.912Z,64.20
2019-04-11T06:26:23.010Z,64.10
2019-04-11T06:27:06.745Z,63.90
2019-04-11T06:28:13.845Z,64.10
2019-04-11T06:28:53.682Z,64.10
2019-04-11T06:29:34.768Z,64.00
2019-04-11T06:30:28.348Z,63.90
2019-04-11T06:31:20.202Z,63.80
2019-04-11T06:32:28.450Z,63.60
2019-04-11T06:33:16.497Z,63.40
2019-04-11T06:33:56.634Z,63.20
2019-04-11T06:34:35.481Z,63.10
2019-04-11T06:35:16.392Z,63.00
2019-04-11T06:36:23.534Z,63.00
2019-04-11T06:37:15.398Z,63.00
2019-04-11T06:38:10.086Z,63.20
2019-04-11T06:38:49.336Z,63.30
2019-04-11T06:39:57.743Z,63.30
2019-04-11T06:40:38.601Z,63.30
2019-04-11T06:41:33.219Z,63.10
2019-04-11T06:42:37.432Z,63.10
2019-04-11T06:43:20.884Z,62.80
2019-04-11T06:44:16.388Z,62.90
2019-04-11T06:45:17.563Z,62.70
2019-04-11T06:46:13.453Z,62.80
2019-04-11T06:47:08.350Z,62.80
2019-04-11T06:47:51.335Z,62.60
2019-04-11T06:48:38.126Z,62.50
2019-04-11T06:49:31.434Z,62.40
2019-04-11T06:50:13.106Z,62.50
2019-04-11T06:51:11.618Z,63.00
2019-04-11T06:51:50.541Z,62.20
2019-04-11T06:52:26.720Z,61.80
2019-04-11T06:53:02.339Z,61.80
2019-04-11T06:53:42.063Z,61.70
2019-04-11T06:54:25.215Z,61.50
2019-04-11T06:55:22.842Z,61.60
2019-04-11T06:56:12.428Z,61.70
2019-04-11T06:56:50.363Z,61.60
2019-04-11T06:57:27.842Z,61.70
2019-04-11T06:58:08.249Z,61.50
2019-04-11T06:58:47.911Z,61.60
2019-04-11T06:59:28.114Z,61.50
2019-04-11T07:00:05.141Z,61.50
2019-04-11T07:00:43.219Z,61.50
2019-04-11T07:01:22.478Z,61.60
2019-04-11T07:02:08.830Z,61.60
2019-04-11T07:02:42.509Z,61.60
2019-04-11T07:03:24.462Z,61.60
2019-04-11T07:04:05.312Z,61.40
2019-04-11T07:04:47.712Z,61.20
2019-04-11T07:05:24.705Z,61.00
2019-04-11T07:06:05.055Z,61.00
2019-04-11T07:06:42.378Z,61.00
2019-04-11T07:07:18.522Z,60.90
2019-04-11T07:07:55.709Z,60.80
2019-04-11T07:08:38.437Z,60.80
2019-04-11T07:09:25.412Z,60.60
2019-04-11T07:10:03.911Z,60.60
2019-04-11T07:10:51.086Z,60.70
2019-04-11T07:11:36.268Z,61.10
2019-04-11T07:12:16.130Z,61.30
2019-04-11T07:13:00.703Z,61.30
2019-04-11T07:13:58.644Z,61.30
2019-04-11T07:14:39.843Z,61.10
2019-04-11T07:15:40.928Z,60.80
2019-04-11T07:16:18.429Z,60.70
2019-04-11T07:17:13.419Z,60.60
2019-04-11T07:18:07.584Z,60.40
2019-04-11T07:19:01.011Z,60.10
2019-04-11T07:19:55.755Z,60.00
2019-04-11T07:20:52.201Z,60.00
2019-04-11T07:21:35.314Z,59.70
2019-04-11T07:22:30.530Z,59.80
2019-04-11T07:23:24.333Z,59.70
2019-04-11T07:24:18.191Z,59.40
2019-04-11T07:25:18.674Z,59.10
2019-04-11T07:26:02.600Z,58.90
2019-04-11T07:26:47.937Z,58.80
2019-04-11T07:27:23.798Z,58.70
2019-04-11T07:28:06.284Z,58.60
2019-04-11T07:29:04.581Z,58.40
2019-04-11T07:30:00.255Z,58.30
2019-04-11T07:30:54.037Z,58.30
2019-04-11T07:31:40.592Z,58.50
2019-04-11T07:32:20.552Z,58.40
2019-04-11T07:33:03.938Z,58.40
2019-04-11T07:34:00.944Z,58.40
2019-04-11T07:34:54.438Z,58.60
2019-04-11T07:36:05.737Z,58.50
2019-04-11T07:37:10.462Z,58.10
2019-04-11T07:37:49.169Z,58.10
2019-04-11T07:38:33.379Z,58.10
2019-04-11T07:39:24.502Z,58.00
2019-04-11T07:40:22.295Z,58.00
2019-04-11T07:41:15.212Z,58.00
2019-04-11T07:42:11.284Z,58.00
2019-04-11T07:42:52.136Z,57.50
2019-04-11T07:43:31.286Z,57.50
2019-04-11T07:44:07.133Z,57.70
2019-04-11T07:44:51.985Z,57.70
2019-04-11T07:45:32.523Z,57.80
2019-04-11T07:46:22.177Z,57.70
2019-04-11T07:47:17.145Z,57.60
2019-04-11T07:47:52.815Z,57.60
2019-04-11T07:48:31.530Z,57.60
2019-04-11T07:49:08.403Z,57.60
2019-04-11T07:49:44.979Z,57.30
2019-04-11T07:50:21.363Z,56.60
2019-04-11T07:50:59.667Z,56.40
2019-04-11T07:51:38.531Z,56.60
2019-04-11T07:52:15.426Z,56.50
2019-04-11T07:52:54.306Z,56.60
2019-04-11T07:53:30.828Z,56.60
2019-04-11T07:54:09.838Z,56.40
2019-04-11T07:54:45.703Z,56.30
2019-04-11T07:55:23.465Z,56.40
2019-04-11T07:56:02.008Z,56.00
2019-04-11T07:56:50.673Z,55.80
2019-04-11T07:57:31.808Z,55.80
2019-04-11T07:58:21.638Z,55.80
2019-04-11T07:59:00.818Z,55.90
2019-04-11T07:59:55.576Z,56.00
2019-04-11T08:00:47.884Z,55.90
2019-04-11T08:01:34.281Z,56.00
2019-04-11T08:02:28.929Z,56.00
2019-04-11T08:03:33.096Z,55.40
2019-04-11T08:04:27.730Z,55.40
2019-04-11T08:05:23.665Z,55.30
2019-04-11T08:06:17.508Z,55.10
2019-04-11T08:07:02.178Z,55.30
2019-04-11T08:07:49.656Z,55.30
2019-04-11T08:08:50.047Z,55.80
2019-04-11T08:09:35.791Z,56.00
2019-04-11T08:10:16.020Z,56.10
2019-04-11T08:11:07.484Z,55.40
2019-04-11T08:11:58.842Z,55.00
2019-04-11T08:12:34.758Z,54.90
2019-04-11T08:13:14.372Z,54.40
2019-04-11T08:14:18.377Z,54.20
2019-04-11T08:15:11.773Z,54.20
2019-04-11T08:16:05.032Z,53.90
2019-04-11T08:16:57.574Z,54.00
2019-04-11T08:17:40.478Z,53.50
2019-04-11T08:18:21.619Z,53.70
2019-04-11T08:19:15.951Z,53.10
2019-04-11T08:20:10.148Z,52.10
2019-04-11T08:21:20.404Z,50.40
2019-04-11T08:22:03.507Z,50.20
2019-04-11T08:22:45.498Z,50.60
2019-04-11T08:23:23.484Z,50.50
2019-04-11T08:24:02.334Z,50.50
2019-04-11T08:24:49.640Z,50.50
2019-04-11T08:25:50.047Z,50.60
2019-04-11T08:26:48.420Z,50.60
2019-04-11T08:27:29.565Z,50.70
2019-04-11T08:28:09.348Z,50.40
2019-04-11T08:28:45.606Z,49.80
2019-04-11T08:29:22.285Z,49.50
2019-04-11T08:30:00.350Z,49.60
2019-04-11T08:31:05.447Z,49.70
2019-04-11T08:32:02.928Z,49.70
2019-04-11T08:32:44.416Z,49.40
2019-04-11T08:33:20.018Z,47.10
2019-04-11T08:34:02.666Z,46.00
2019-04-11T08:34:45.796Z,45.70
2019-04-11T08:35:52.984Z,45.70
2019-04-11T08:36:47.152Z,45.50
2019-04-11T08:37:34.434Z,45.50
2019-04-11T08:38:16.180Z,45.30
2019-04-11T08:38:52.995Z,45.20
2019-04-11T08:39:35.968Z,44.20
2019-04-11T08:40:11.660Z,43.70
2019-04-11T08:41:01.522Z,43.60